LFPG/CDG METAR and TAF weather

Enter ICAO airport designator
Station Type Date Time Source
LFPG METAR 2021/01/16 02:30 UTC NOAA

LFPG 160230Z 30003KT 9999 BKN031 M00/M03 Q1030 NOSIG


Station Type Date Time Source
LFPG Decoded METAR 2021/01/16 02:30 UTC NOAA

Paris-Aeroport Charles De Gaulle, France (LFPG) 49-01N 002-32E 109M
Jan 15, 2021 - 09:30 PM EST / 2021.01.16 0230 UTC
Wind: from the WNW (300 degrees) at 3 MPH (3 KT):0
Visibility: greater than 7 mile(s):0
Sky conditions: mostly cloudy
Temperature: 32 F (0 C)
Dew Point: 26 F (-3 C)
Relative Humidity: 80%
Pressure (altimeter): 30.42 in. Hg (1030 hPa)
ob: LFPG 160230Z 30003KT 9999 BKN031 M00/M03 Q1030 NOSIG
cycle: 2

Station Type Date Time Source
LFPG TAF 2021/01/15 18:08 UTC NOAA

TAF LFPG 151700Z 1518/1624 03008KT 9999 BKN028 TX03/1623Z TNM03/1603Z
TEMPO 1519/1608 CAVOK
BECMG 1609/1611 4000 -SN BKN004 BKN012 PROB40
TEMPO 1613/1616 19015G25KT 1500 SN
TEMPO 1617/1618 SNRA PROB40
TEMPO 1617/1618 FZRA
BECMG 1622/1624 BKN030

Example: see airport list